sensor_id;sensor_type;location;lat;lon;timestamp;P1;durP1;ratioP1;P2;durP2;ratioP2
63201;SDS011;49296;48.188;11.566;2023-04-28T00:00:48;6.72;;;4.30;;
63201;SDS011;49296;48.188;11.566;2023-04-28T00:03:15;8.48;;;4.55;;
63201;SDS011;49296;48.188;11.566;2023-04-28T00:05:42;5.78;;;4.13;;
63201;SDS011;49296;48.188;11.566;2023-04-28T00:08:08;6.25;;;4.03;;
63201;SDS011;49296;48.188;11.566;2023-04-28T00:10:37;6.82;;;3.90;;
63201;SDS011;49296;48.188;11.566;2023-04-28T00:13:04;5.88;;;3.22;;
63201;SDS011;49296;48.188;11.566;2023-04-28T00:15:31;5.75;;;3.70;;
63201;SDS011;49296;48.188;11.566;2023-04-28T00:17:57;8.40;;;3.83;;
63201;SDS011;49296;48.188;11.566;2023-04-28T00:20:25;6.45;;;3.40;;
63201;SDS011;49296;48.188;11.566;2023-04-28T00:22:51;6.82;;;3.25;;
63201;SDS011;49296;48.188;11.566;2023-04-28T00:25:18;5.78;;;3.60;;
63201;SDS011;49296;48.188;11.566;2023-04-28T00:27:47;6.90;;;3.30;;
63201;SDS011;49296;48.188;11.566;2023-04-28T00:30:14;5.05;;;3.20;;
63201;SDS011;49296;48.188;11.566;2023-04-28T00:32:42;5.35;;;3.10;;
63201;SDS011;49296;48.188;11.566;2023-04-28T00:35:09;4.90;;;3.35;;
63201;SDS011;49296;48.188;11.566;2023-04-28T00:37:36;6.45;;;3.70;;
63201;SDS011;49296;48.188;11.566;2023-04-28T00:40:03;6.82;;;4.07;;
63201;SDS011;49296;48.188;11.566;2023-04-28T00:42:31;5.63;;;3.38;;
63201;SDS011;49296;48.188;11.566;2023-04-28T00:44:59;4.82;;;2.80;;
63201;SDS011;49296;48.188;11.566;2023-04-28T00:47:30;5.28;;;3.00;;
63201;SDS011;49296;48.188;11.566;2023-04-28T00:49:57;5.18;;;3.10;;
63201;SDS011;49296;48.188;11.566;2023-04-28T00:52:24;5.32;;;3.00;;
63201;SDS011;49296;48.188;11.566;2023-04-28T00:54:51;6.57;;;2.80;;
63201;SDS011;49296;48.188;11.566;2023-04-28T00:57:18;5.32;;;2.90;;
63201;SDS011;49296;48.188;11.566;2023-04-28T00:59:45;5.72;;;3.50;;
63201;SDS011;49296;48.188;11.566;2023-04-28T01:02:13;7.95;;;4.22;;
63201;SDS011;49296;48.188;11.566;2023-04-28T01:04:42;6.30;;;3.28;;
63201;SDS011;49296;48.188;11.566;2023-04-28T01:07:09;5.28;;;2.92;;
63201;SDS011;49296;48.188;11.566;2023-04-28T01:09:36;4.75;;;2.80;;
63201;SDS011;49296;48.188;11.566;2023-04-28T01:12:03;5.95;;;3.17;;
63201;SDS011;49296;48.188;11.566;2023-04-28T01:14:31;5.68;;;2.83;;
63201;SDS011;49296;48.188;11.566;2023-04-28T01:16:59;4.68;;;3.15;;
63201;SDS011;49296;48.188;11.566;2023-04-28T01:19:27;5.70;;;3.08;;
63201;SDS011;49296;48.188;11.566;2023-04-28T01:21:54;6.43;;;3.38;;
63201;SDS011;49296;48.188;11.566;2023-04-28T01:24:22;6.30;;;3.22;;
63201;SDS011;49296;48.188;11.566;2023-04-28T01:26:49;6.82;;;3.88;;
63201;SDS011;49296;48.188;11.566;2023-04-28T01:29:16;6.10;;;3.30;;
63201;SDS011;49296;48.188;11.566;2023-04-28T01:31:43;5.43;;;2.97;;
63201;SDS011;49296;48.188;11.566;2023-04-28T01:34:10;4.82;;;2.85;;
63201;SDS011;49296;48.188;11.566;2023-04-28T01:36:36;5.13;;;3.00;;
63201;SDS011;49296;48.188;11.566;2023-04-28T01:39:04;6.38;;;3.30;;
63201;SDS011;49296;48.188;11.566;2023-04-28T01:41:32;6.25;;;2.75;;
63201;SDS011;49296;48.188;11.566;2023-04-28T01:43:59;5.00;;;2.75;;
63201;SDS011;49296;48.188;11.566;2023-04-28T01:46:26;4.85;;;2.67;;
63201;SDS011;49296;48.188;11.566;2023-04-28T01:48:53;5.35;;;2.70;;
63201;SDS011;49296;48.188;11.566;2023-04-28T01:51:20;5.50;;;2.90;;
63201;SDS011;49296;48.188;11.566;2023-04-28T01:53:46;6.97;;;2.80;;
63201;SDS011;49296;48.188;11.566;2023-04-28T01:56:13;7.25;;;3.10;;
63201;SDS011;49296;48.188;11.566;2023-04-28T01:58:41;4.55;;;2.63;;
63201;SDS011;49296;48.188;11.566;2023-04-28T02:01:08;4.93;;;2.72;;
63201;SDS011;49296;48.188;11.566;2023-04-28T02:03:35;5.45;;;2.60;;
63201;SDS011;49296;48.188;11.566;2023-04-28T02:06:02;4.70;;;2.53;;
63201;SDS011;49296;48.188;11.566;2023-04-28T02:08:29;5.22;;;2.92;;
63201;SDS011;49296;48.188;11.566;2023-04-28T02:10:56;5.13;;;2.83;;
63201;SDS011;49296;48.188;11.566;2023-04-28T02:13:25;6.93;;;2.40;;
63201;SDS011;49296;48.188;11.566;2023-04-28T02:15:53;5.82;;;2.60;;
63201;SDS011;49296;48.188;11.566;2023-04-28T02:18:20;4.38;;;2.47;;
63201;SDS011;49296;48.188;11.566;2023-04-28T02:20:47;4.65;;;2.47;;
63201;SDS011;49296;48.188;11.566;2023-04-28T02:23:14;4.50;;;2.80;;
63201;SDS011;49296;48.188;11.566;2023-04-28T02:25:41;4.22;;;2.67;;
63201;SDS011;49296;48.188;11.566;2023-04-28T02:28:07;4.15;;;2.47;;
63201;SDS011;49296;48.188;11.566;2023-04-28T02:30:34;4.55;;;2.50;;
63201;SDS011;49296;48.188;11.566;2023-04-28T02:33:02;5.25;;;3.00;;
63201;SDS011;49296;48.188;11.566;2023-04-28T02:35:29;4.32;;;2.30;;
63201;SDS011;49296;48.188;11.566;2023-04-28T02:37:56;4.97;;;2.75;;
63201;SDS011;49296;48.188;11.566;2023-04-28T02:40:23;5.68;;;2.92;;
63201;SDS011;49296;48.188;11.566;2023-04-28T02:42:50;5.40;;;2.90;;
63201;SDS011;49296;48.188;11.566;2023-04-28T02:45:17;5.20;;;2.72;;
63201;SDS011;49296;48.188;11.566;2023-04-28T02:47:44;5.03;;;2.70;;
63201;SDS011;49296;48.188;11.566;2023-04-28T02:50:12;4.55;;;2.80;;
63201;SDS011;49296;48.188;11.566;2023-04-28T02:52:38;5.20;;;2.83;;
63201;SDS011;49296;48.188;11.566;2023-04-28T02:55:05;5.25;;;3.15;;
63201;SDS011;49296;48.188;11.566;2023-04-28T02:57:33;4.55;;;2.47;;
63201;SDS011;49296;48.188;11.566;2023-04-28T03:00:00;5.35;;;3.00;;
63201;SDS011;49296;48.188;11.566;2023-04-28T03:02:26;4.18;;;2.65;;
63201;SDS011;49296;48.188;11.566;2023-04-28T03:04:53;4.32;;;2.42;;
63201;SDS011;49296;48.188;11.566;2023-04-28T03:07:21;5.60;;;2.72;;
63201;SDS011;49296;48.188;11.566;2023-04-28T03:09:48;5.38;;;2.78;;
63201;SDS011;49296;48.188;11.566;2023-04-28T03:12:15;5.32;;;2.72;;
63201;SDS011;49296;48.188;11.566;2023-04-28T03:14:42;4.70;;;2.55;;
63201;SDS011;49296;48.188;11.566;2023-04-28T03:17:09;5.28;;;2.45;;
63201;SDS011;49296;48.188;11.566;2023-04-28T03:19:38;3.75;;;2.22;;
63201;SDS011;49296;48.188;11.566;2023-04-28T03:22:08;6.22;;;2.50;;
63201;SDS011;49296;48.188;11.566;2023-04-28T03:24:36;5.15;;;2.78;;
63201;SDS011;49296;48.188;11.566;2023-04-28T03:27:03;3.72;;;2.20;;
63201;SDS011;49296;48.188;11.566;2023-04-28T03:29:30;3.60;;;2.40;;
63201;SDS011;49296;48.188;11.566;2023-04-28T03:31:57;4.80;;;2.60;;
63201;SDS011;49296;48.188;11.566;2023-04-28T03:34:24;4.78;;;2.42;;
63201;SDS011;49296;48.188;11.566;2023-04-28T03:36:51;5.32;;;2.67;;
63201;SDS011;49296;48.188;11.566;2023-04-28T03:39:18;4.55;;;2.65;;
63201;SDS011;49296;48.188;11.566;2023-04-28T03:41:46;6.45;;;2.65;;
63201;SDS011;49296;48.188;11.566;2023-04-28T03:44:12;5.38;;;2.85;;
63201;SDS011;49296;48.188;11.566;2023-04-28T03:46:39;4.47;;;2.60;;
63201;SDS011;49296;48.188;11.566;2023-04-28T03:49:06;5.00;;;2.60;;
63201;SDS011;49296;48.188;11.566;2023-04-28T03:51:33;4.50;;;2.67;;
63201;SDS011;49296;48.188;11.566;2023-04-28T03:54:00;4.97;;;2.75;;
63201;SDS011;49296;48.188;11.566;2023-04-28T03:56:26;5.05;;;2.72;;
63201;SDS011;49296;48.188;11.566;2023-04-28T03:58:55;4.63;;;2.55;;
63201;SDS011;49296;48.188;11.566;2023-04-28T04:01:21;4.15;;;2.30;;
63201;SDS011;49296;48.188;11.566;2023-04-28T04:03:48;5.05;;;2.45;;
63201;SDS011;49296;48.188;11.566;2023-04-28T04:06:16;4.25;;;2.90;;
63201;SDS011;49296;48.188;11.566;2023-04-28T04:08:43;4.95;;;2.47;;
63201;SDS011;49296;48.188;11.566;2023-04-28T04:11:09;4.95;;;2.90;;
63201;SDS011;49296;48.188;11.566;2023-04-28T04:13:36;4.57;;;2.53;;
63201;SDS011;49296;48.188;11.566;2023-04-28T04:16:05;6.22;;;2.97;;
63201;SDS011;49296;48.188;11.566;2023-04-28T04:18:32;4.72;;;2.42;;
63201;SDS011;49296;48.188;11.566;2023-04-28T04:20:59;6.30;;;2.92;;
63201;SDS011;49296;48.188;11.566;2023-04-28T04:23:27;5.40;;;2.70;;
63201;SDS011;49296;48.188;11.566;2023-04-28T04:25:53;5.18;;;2.92;;
63201;SDS011;49296;48.188;11.566;2023-04-28T04:28:21;5.68;;;3.38;;
63201;SDS011;49296;48.188;11.566;2023-04-28T04:30:47;6.78;;;3.10;;
63201;SDS011;49296;48.188;11.566;2023-04-28T04:33:16;6.57;;;3.58;;
63201;SDS011;49296;48.188;11.566;2023-04-28T04:35:42;5.40;;;3.25;;
63201;SDS011;49296;48.188;11.566;2023-04-28T04:38:09;6.20;;;3.25;;
63201;SDS011;49296;48.188;11.566;2023-04-28T04:40:36;5.63;;;3.35;;
63201;SDS011;49296;48.188;11.566;2023-04-28T04:43:03;5.15;;;3.20;;
63201;SDS011;49296;48.188;11.566;2023-04-28T04:45:30;6.28;;;3.53;;
63201;SDS011;49296;48.188;11.566;2023-04-28T04:47:57;6.22;;;4.10;;
63201;SDS011;49296;48.188;11.566;2023-04-28T04:50:26;8.90;;;4.18;;
63201;SDS011;49296;48.188;11.566;2023-04-28T04:52:53;5.57;;;3.28;;
63201;SDS011;49296;48.188;11.566;2023-04-28T04:55:21;5.00;;;3.03;;
63201;SDS011;49296;48.188;11.566;2023-04-28T04:57:48;5.95;;;3.97;;
63201;SDS011;49296;48.188;11.566;2023-04-28T05:00:15;5.85;;;3.42;;
63201;SDS011;49296;48.188;11.566;2023-04-28T05:02:43;6.57;;;3.67;;
63201;SDS011;49296;48.188;11.566;2023-04-28T05:05:10;6.57;;;3.47;;
63201;SDS011;49296;48.188;11.566;2023-04-28T05:07:38;5.97;;;3.45;;
63201;SDS011;49296;48.188;11.566;2023-04-28T05:10:05;10.43;;;3.78;;
63201;SDS011;49296;48.188;11.566;2023-04-28T05:12:32;6.63;;;3.80;;
63201;SDS011;49296;48.188;11.566;2023-04-28T05:14:59;6.15;;;3.40;;
63201;SDS011;49296;48.188;11.566;2023-04-28T05:17:26;7.57;;;3.67;;
63201;SDS011;49296;48.188;11.566;2023-04-28T05:19:53;7.25;;;3.40;;
63201;SDS011;49296;48.188;11.566;2023-04-28T05:22:20;8.10;;;4.32;;
63201;SDS011;49296;48.188;11.566;2023-04-28T05:24:48;5.07;;;3.00;;
63201;SDS011;49296;48.188;11.566;2023-04-28T05:27:15;6.38;;;3.03;;
63201;SDS011;49296;48.188;11.566;2023-04-28T05:29:41;5.70;;;3.50;;
63201;SDS011;49296;48.188;11.566;2023-04-28T05:32:08;5.20;;;3.45;;
63201;SDS011;49296;48.188;11.566;2023-04-28T05:34:35;5.53;;;2.90;;
63201;SDS011;49296;48.188;11.566;2023-04-28T05:37:02;4.80;;;3.20;;
63201;SDS011;49296;48.188;11.566;2023-04-28T05:39:28;6.57;;;3.50;;
63201;SDS011;49296;48.188;11.566;2023-04-28T05:41:56;6.55;;;3.20;;
63201;SDS011;49296;48.188;11.566;2023-04-28T05:44:23;6.38;;;3.47;;
63201;SDS011;49296;48.188;11.566;2023-04-28T05:46:51;6.43;;;3.50;;
63201;SDS011;49296;48.188;11.566;2023-04-28T05:49:17;6.03;;;3.25;;
63201;SDS011;49296;48.188;11.566;2023-04-28T05:51:44;5.18;;;3.53;;
63201;SDS011;49296;48.188;11.566;2023-04-28T05:54:11;4.75;;;3.03;;
63201;SDS011;49296;48.188;11.566;2023-04-28T05:56:38;6.38;;;3.70;;
63201;SDS011;49296;48.188;11.566;2023-04-28T05:59:06;4.82;;;3.22;;
63201;SDS011;49296;48.188;11.566;2023-04-28T06:01:34;6.43;;;3.75;;
63201;SDS011;49296;48.188;11.566;2023-04-28T06:04:02;6.68;;;3.47;;
63201;SDS011;49296;48.188;11.566;2023-04-28T06:06:29;4.80;;;3.00;;
63201;SDS011;49296;48.188;11.566;2023-04-28T06:08:58;5.57;;;3.60;;
63201;SDS011;49296;48.188;11.566;2023-04-28T06:11:25;8.15;;;3.90;;
63201;SDS011;49296;48.188;11.566;2023-04-28T06:13:52;5.95;;;3.30;;
63201;SDS011;49296;48.188;11.566;2023-04-28T06:16:20;7.30;;;3.75;;
63201;SDS011;49296;48.188;11.566;2023-04-28T06:18:47;7.10;;;3.72;;
63201;SDS011;49296;48.188;11.566;2023-04-28T06:21:14;8.27;;;3.78;;
63201;SDS011;49296;48.188;11.566;2023-04-28T06:23:41;6.07;;;3.97;;
63201;SDS011;49296;48.188;11.566;2023-04-28T06:26:08;7.32;;;3.22;;
63201;SDS011;49296;48.188;11.566;2023-04-28T06:28:35;6.45;;;3.20;;
63201;SDS011;49296;48.188;11.566;2023-04-28T06:31:02;6.03;;;3.00;;
63201;SDS011;49296;48.188;11.566;2023-04-28T06:33:30;5.30;;;2.63;;
63201;SDS011;49296;48.188;11.566;2023-04-28T06:35:57;5.07;;;2.88;;
63201;SDS011;49296;48.188;11.566;2023-04-28T06:38:23;6.95;;;3.28;;
63201;SDS011;49296;48.188;11.566;2023-04-28T06:40:50;5.18;;;2.63;;
63201;SDS011;49296;48.188;11.566;2023-04-28T06:43:18;5.13;;;3.47;;
63201;SDS011;49296;48.188;11.566;2023-04-28T06:45:45;5.72;;;3.35;;
63201;SDS011;49296;48.188;11.566;2023-04-28T06:48:12;6.05;;;3.58;;
63201;SDS011;49296;48.188;11.566;2023-04-28T06:50:40;6.68;;;3.08;;
63201;SDS011;49296;48.188;11.566;2023-04-28T06:53:07;7.75;;;3.60;;
63201;SDS011;49296;48.188;11.566;2023-04-28T06:55:34;6.82;;;3.88;;
63201;SDS011;49296;48.188;11.566;2023-04-28T06:58:01;6.85;;;4.00;;
63201;SDS011;49296;48.188;11.566;2023-04-28T07:00:27;7.63;;;3.58;;
63201;SDS011;49296;48.188;11.566;2023-04-28T07:02:54;6.18;;;3.30;;
63201;SDS011;49296;48.188;11.566;2023-04-28T07:05:21;5.60;;;3.40;;
63201;SDS011;49296;48.188;11.566;2023-04-28T07:07:50;5.78;;;2.60;;
63201;SDS011;49296;48.188;11.566;2023-04-28T07:10:19;4.13;;;2.45;;
63201;SDS011;49296;48.188;11.566;2023-04-28T07:12:46;5.55;;;2.85;;
63201;SDS011;49296;48.188;11.566;2023-04-28T07:15:15;5.85;;;2.80;;
63201;SDS011;49296;48.188;11.566;2023-04-28T07:17:42;5.65;;;2.70;;
63201;SDS011;49296;48.188;11.566;2023-04-28T07:20:08;6.00;;;3.53;;
63201;SDS011;49296;48.188;11.566;2023-04-28T07:22:36;4.18;;;2.00;;
63201;SDS011;49296;48.188;11.566;2023-04-28T07:25:05;7.30;;;2.63;;
63201;SDS011;49296;48.188;11.566;2023-04-28T07:27:31;5.05;;;2.30;;
63201;SDS011;49296;48.188;11.566;2023-04-28T07:29:58;4.32;;;2.10;;
63201;SDS011;49296;48.188;11.566;2023-04-28T07:32:25;4.88;;;1.80;;
63201;SDS011;49296;48.188;11.566;2023-04-28T07:34:52;6.45;;;2.00;;
63201;SDS011;49296;48.188;11.566;2023-04-28T07:37:19;4.32;;;2.10;;
63201;SDS011;49296;48.188;11.566;2023-04-28T07:39:45;4.78;;;1.90;;
63201;SDS011;49296;48.188;11.566;2023-04-28T07:42:14;4.18;;;2.00;;
63201;SDS011;49296;48.188;11.566;2023-04-28T07:44:41;4.65;;;2.13;;
63201;SDS011;49296;48.188;11.566;2023-04-28T07:47:08;4.25;;;2.10;;
63201;SDS011;49296;48.188;11.566;2023-04-28T07:49:35;5.07;;;2.25;;
63201;SDS011;49296;48.188;11.566;2023-04-28T07:52:01;5.10;;;2.35;;
63201;SDS011;49296;48.188;11.566;2023-04-28T07:54:28;5.40;;;2.47;;
63201;SDS011;49296;48.188;11.566;2023-04-28T07:56:55;5.25;;;2.70;;
63201;SDS011;49296;48.188;11.566;2023-04-28T07:59:24;6.90;;;2.67;;
63201;SDS011;49296;48.188;11.566;2023-04-28T08:01:51;6.22;;;2.92;;
63201;SDS011;49296;48.188;11.566;2023-04-28T08:04:18;4.80;;;2.28;;
63201;SDS011;49296;48.188;11.566;2023-04-28T08:06:45;5.60;;;2.20;;
63201;SDS011;49296;48.188;11.566;2023-04-28T08:09:11;6.10;;;2.70;;
63201;SDS011;49296;48.188;11.566;2023-04-28T08:11:40;5.03;;;2.42;;
63201;SDS011;49296;48.188;11.566;2023-04-28T08:14:07;5.65;;;3.30;;
63201;SDS011;49296;48.188;11.566;2023-04-28T08:16:35;4.55;;;2.45;;
63201;SDS011;49296;48.188;11.566;2023-04-28T08:19:04;4.10;;;2.33;;
63201;SDS011;49296;48.188;11.566;2023-04-28T08:21:31;5.20;;;2.40;;
63201;SDS011;49296;48.188;11.566;2023-04-28T08:24:01;4.78;;;2.10;;
63201;SDS011;49296;48.188;11.566;2023-04-28T08:26:27;4.38;;;2.42;;
63201;SDS011;49296;48.188;11.566;2023-04-28T08:28:55;6.13;;;2.60;;
63201;SDS011;49296;48.188;11.566;2023-04-28T08:31:22;6.03;;;2.80;;
63201;SDS011;49296;48.188;11.566;2023-04-28T08:33:50;5.20;;;2.50;;
63201;SDS011;49296;48.188;11.566;2023-04-28T08:36:17;4.80;;;2.80;;
63201;SDS011;49296;48.188;11.566;2023-04-28T08:38:44;5.57;;;2.80;;
63201;SDS011;49296;48.188;11.566;2023-04-28T08:41:11;4.32;;;2.22;;
63201;SDS011;49296;48.188;11.566;2023-04-28T08:43:40;5.95;;;2.50;;
63201;SDS011;49296;48.188;11.566;2023-04-28T08:46:08;4.85;;;2.42;;
63201;SDS011;49296;48.188;11.566;2023-04-28T08:48:37;5.25;;;2.67;;
63201;SDS011;49296;48.188;11.566;2023-04-28T08:51:08;9.05;;;2.60;;
63201;SDS011;49296;48.188;11.566;2023-04-28T08:53:37;5.15;;;2.22;;
63201;SDS011;49296;48.188;11.566;2023-04-28T08:56:04;6.25;;;2.13;;
63201;SDS011;49296;48.188;11.566;2023-04-28T08:58:34;5.75;;;2.97;;
63201;SDS011;49296;48.188;11.566;2023-04-28T09:01:01;5.40;;;2.53;;
63201;SDS011;49296;48.188;11.566;2023-04-28T09:03:29;5.22;;;2.75;;
63201;SDS011;49296;48.188;11.566;2023-04-28T09:05:55;4.88;;;2.90;;
63201;SDS011;49296;48.188;11.566;2023-04-28T09:08:24;4.20;;;2.50;;
63201;SDS011;49296;48.188;11.566;2023-04-28T09:11:04;4.28;;;2.10;;
63201;SDS011;49296;48.188;11.566;2023-04-28T09:13:32;4.70;;;2.00;;
63201;SDS011;49296;48.188;11.566;2023-04-28T09:15:59;3.53;;;1.98;;
63201;SDS011;49296;48.188;11.566;2023-04-28T09:18:27;3.90;;;1.88;;
63201;SDS011;49296;48.188;11.566;2023-04-28T09:21:01;3.58;;;1.98;;
63201;SDS011;49296;48.188;11.566;2023-04-28T09:23:31;4.05;;;2.17;;
63201;SDS011;49296;48.188;11.566;2023-04-28T09:25:59;4.78;;;2.00;;
63201;SDS011;49296;48.188;11.566;2023-04-28T09:28:27;4.20;;;2.10;;
63201;SDS011;49296;48.188;11.566;2023-04-28T09:30:54;4.57;;;2.00;;
63201;SDS011;49296;48.188;11.566;2023-04-28T09:33:21;5.72;;;2.33;;
63201;SDS011;49296;48.188;11.566;2023-04-28T09:35:48;5.75;;;1.95;;
63201;SDS011;49296;48.188;11.566;2023-04-28T09:38:15;4.50;;;1.95;;
63201;SDS011;49296;48.188;11.566;2023-04-28T09:40:50;4.30;;;1.98;;
63201;SDS011;49296;48.188;11.566;2023-04-28T09:43:24;4.10;;;2.08;;
63201;SDS011;49296;48.188;11.566;2023-04-28T09:45:52;4.78;;;2.30;;
63201;SDS011;49296;48.188;11.566;2023-04-28T09:48:26;5.03;;;2.35;;
63201;SDS011;49296;48.188;11.566;2023-04-28T09:50:54;4.82;;;2.70;;
63201;SDS011;49296;48.188;11.566;2023-04-28T09:53:23;5.05;;;2.63;;
63201;SDS011;49296;48.188;11.566;2023-04-28T09:55:52;4.32;;;2.10;;
63201;SDS011;49296;48.188;11.566;2023-04-28T09:58:21;5.28;;;3.25;;
63201;SDS011;49296;48.188;11.566;2023-04-28T10:00:50;4.32;;;2.35;;
63201;SDS011;49296;48.188;11.566;2023-04-28T10:03:20;5.28;;;2.22;;
63201;SDS011;49296;48.188;11.566;2023-04-28T10:05:48;3.13;;;1.70;;
63201;SDS011;49296;48.188;11.566;2023-04-28T10:08:17;3.45;;;1.60;;
63201;SDS011;49296;48.188;11.566;2023-04-28T10:10:45;3.97;;;1.60;;
63201;SDS011;49296;48.188;11.566;2023-04-28T10:13:16;4.78;;;1.67;;
63201;SDS011;49296;48.188;11.566;2023-04-28T10:15:43;3.95;;;1.88;;
63201;SDS011;49296;48.188;11.566;2023-04-28T10:18:11;5.28;;;2.17;;
63201;SDS011;49296;48.188;11.566;2023-04-28T10:20:39;5.20;;;1.98;;
63201;SDS011;49296;48.188;11.566;2023-04-28T10:23:16;4.05;;;1.90;;
63201;SDS011;49296;48.188;11.566;2023-04-28T10:26:02;3.58;;;2.15;;
63201;SDS011;49296;48.188;11.566;2023-04-28T10:28:37;5.47;;;2.28;;
63201;SDS011;49296;48.188;11.566;2023-04-28T10:31:10;4.80;;;2.30;;
63201;SDS011;49296;48.188;11.566;2023-04-28T10:33:38;4.82;;;2.00;;
63201;SDS011;49296;48.188;11.566;2023-04-28T10:36:06;5.55;;;2.15;;
63201;SDS011;49296;48.188;11.566;2023-04-28T10:38:35;4.28;;;1.90;;
63201;SDS011;49296;48.188;11.566;2023-04-28T10:41:34;5.40;;;2.15;;
63201;SDS011;49296;48.188;11.566;2023-04-28T10:44:00;7.82;;;2.53;;
63201;SDS011;49296;48.188;11.566;2023-04-28T10:47:06;3.88;;;1.85;;
63201;SDS011;49296;48.188;11.566;2023-04-28T10:52:49;4.63;;;2.08;;
63201;SDS011;49296;48.188;11.566;2023-04-28T10:55:26;5.30;;;2.10;;
63201;SDS011;49296;48.188;11.566;2023-04-28T11:03:51;4.18;;;1.80;;
63201;SDS011;49296;48.188;11.566;2023-04-28T11:06:25;7.22;;;1.98;;
63201;SDS011;49296;48.188;11.566;2023-04-28T11:08:54;4.97;;;1.52;;
63201;SDS011;49296;48.188;11.566;2023-04-28T11:11:22;4.05;;;1.83;;
63201;SDS011;49296;48.188;11.566;2023-04-28T11:13:52;2.72;;;1.30;;
63201;SDS011;49296;48.188;11.566;2023-04-28T11:16:21;4.75;;;1.40;;
63201;SDS011;49296;48.188;11.566;2023-04-28T11:21:37;3.90;;;1.85;;
63201;SDS011;49296;48.188;11.566;2023-04-28T11:24:07;3.33;;;1.15;;
63201;SDS011;49296;48.188;11.566;2023-04-28T11:26:36;3.63;;;1.50;;
63201;SDS011;49296;48.188;11.566;2023-04-28T11:29:04;3.55;;;1.45;;
63201;SDS011;49296;48.188;11.566;2023-04-28T11:31:31;3.47;;;1.40;;
63201;SDS011;49296;48.188;11.566;2023-04-28T11:33:59;4.32;;;1.42;;
63201;SDS011;49296;48.188;11.566;2023-04-28T11:36:29;4.22;;;1.90;;
63201;SDS011;49296;48.188;11.566;2023-04-28T11:38:59;3.65;;;1.40;;
63201;SDS011;49296;48.188;11.566;2023-04-28T11:41:29;5.47;;;3.20;;
63201;SDS011;49296;48.188;11.566;2023-04-28T11:43:56;7.15;;;3.38;;
63201;SDS011;49296;48.188;11.566;2023-04-28T11:46:24;7.57;;;2.40;;
63201;SDS011;49296;48.188;11.566;2023-04-28T11:49:01;4.25;;;2.38;;
63201;SDS011;49296;48.188;11.566;2023-04-28T11:51:29;3.63;;;1.70;;
63201;SDS011;49296;48.188;11.566;2023-04-28T11:53:57;9.18;;;3.55;;
63201;SDS011;49296;48.188;11.566;2023-04-28T11:56:25;6.43;;;3.15;;
63201;SDS011;49296;48.188;11.566;2023-04-28T11:59:01;4.47;;;1.92;;
63201;SDS011;49296;48.188;11.566;2023-04-28T12:01:31;5.00;;;1.52;;
63201;SDS011;49296;48.188;11.566;2023-04-28T12:04:01;3.53;;;1.40;;
63201;SDS011;49296;48.188;11.566;2023-04-28T12:06:28;2.97;;;1.00;;
63201;SDS011;49296;48.188;11.566;2023-04-28T12:08:55;3.42;;;1.20;;
63201;SDS011;49296;48.188;11.566;2023-04-28T12:11:26;3.30;;;1.70;;
63201;SDS011;49296;48.188;11.566;2023-04-28T12:14:02;4.03;;;1.48;;
63201;SDS011;49296;48.188;11.566;2023-04-28T12:16:41;3.33;;;1.33;;
63201;SDS011;49296;48.188;11.566;2023-04-28T12:19:10;4.43;;;1.20;;
63201;SDS011;49296;48.188;11.566;2023-04-28T12:21:39;3.22;;;1.27;;
63201;SDS011;49296;48.188;11.566;2023-04-28T12:24:13;3.42;;;1.30;;
63201;SDS011;49296;48.188;11.566;2023-04-28T12:26:41;4.18;;;1.98;;
63201;SDS011;49296;48.188;11.566;2023-04-28T12:29:08;4.20;;;1.40;;
63201;SDS011;49296;48.188;11.566;2023-04-28T12:31:48;3.00;;;1.52;;
63201;SDS011;49296;48.188;11.566;2023-04-28T12:34:16;4.53;;;1.50;;
63201;SDS011;49296;48.188;11.566;2023-04-28T12:36:43;3.10;;;1.58;;
63201;SDS011;49296;48.188;11.566;2023-04-28T12:39:14;4.03;;;1.70;;
63201;SDS011;49296;48.188;11.566;2023-04-28T12:41:44;5.57;;;2.10;;
63201;SDS011;49296;48.188;11.566;2023-04-28T12:44:10;3.00;;;1.77;;
63201;SDS011;49296;48.188;11.566;2023-04-28T12:46:37;3.55;;;1.73;;
63201;SDS011;49296;48.188;11.566;2023-04-28T12:49:06;4.85;;;1.90;;
63201;SDS011;49296;48.188;11.566;2023-04-28T12:51:32;5.00;;;1.88;;
63201;SDS011;49296;48.188;11.566;2023-04-28T12:54:00;4.72;;;1.60;;
63201;SDS011;49296;48.188;11.566;2023-04-28T12:56:27;3.00;;;1.30;;
63201;SDS011;49296;48.188;11.566;2023-04-28T12:58:54;2.67;;;1.42;;
63201;SDS011;49296;48.188;11.566;2023-04-28T13:01:21;3.15;;;1.30;;
63201;SDS011;49296;48.188;11.566;2023-04-28T13:03:49;2.83;;;1.60;;
63201;SDS011;49296;48.188;11.566;2023-04-28T13:06:18;4.07;;;1.45;;
63201;SDS011;49296;48.188;11.566;2023-04-28T13:08:45;3.80;;;1.55;;
63201;SDS011;49296;48.188;11.566;2023-04-28T13:11:12;9.95;;;2.97;;
63201;SDS011;49296;48.188;11.566;2023-04-28T13:13:40;3.03;;;1.40;;
63201;SDS011;49296;48.188;11.566;2023-04-28T13:16:08;3.40;;;1.50;;
63201;SDS011;49296;48.188;11.566;2023-04-28T13:18:36;3.70;;;1.30;;
63201;SDS011;49296;48.188;11.566;2023-04-28T13:21:03;2.95;;;1.40;;
63201;SDS011;49296;48.188;11.566;2023-04-28T13:23:32;3.35;;;1.30;;
63201;SDS011;49296;48.188;11.566;2023-04-28T13:25:58;4.30;;;1.88;;
63201;SDS011;49296;48.188;11.566;2023-04-28T13:28:26;4.18;;;2.15;;
63201;SDS011;49296;48.188;11.566;2023-04-28T13:30:54;4.25;;;2.17;;
63201;SDS011;49296;48.188;11.566;2023-04-28T13:33:20;3.70;;;1.73;;
63201;SDS011;49296;48.188;11.566;2023-04-28T13:35:47;3.30;;;1.40;;
63201;SDS011;49296;48.188;11.566;2023-04-28T13:38:15;2.50;;;1.20;;
63201;SDS011;49296;48.188;11.566;2023-04-28T13:40:45;2.08;;;1.05;;
63201;SDS011;49296;48.188;11.566;2023-04-28T13:43:12;2.90;;;0.98;;
63201;SDS011;49296;48.188;11.566;2023-04-28T13:45:38;2.05;;;0.80;;
63201;SDS011;49296;48.188;11.566;2023-04-28T13:48:05;1.55;;;0.80;;
63201;SDS011;49296;48.188;11.566;2023-04-28T13:50:32;1.45;;;0.70;;
63201;SDS011;49296;48.188;11.566;2023-04-28T13:52:59;2.13;;;0.73;;
63201;SDS011;49296;48.188;11.566;2023-04-28T13:55:26;3.03;;;1.15;;
63201;SDS011;49296;48.188;11.566;2023-04-28T13:57:54;2.38;;;1.00;;
63201;SDS011;49296;48.188;11.566;2023-04-28T14:00:25;2.55;;;0.80;;
63201;SDS011;49296;48.188;11.566;2023-04-28T14:02:52;2.20;;;0.82;;
63201;SDS011;49296;48.188;11.566;2023-04-28T14:05:19;1.92;;;0.85;;
63201;SDS011;49296;48.188;11.566;2023-04-28T14:07:46;2.55;;;1.02;;
63201;SDS011;49296;48.188;11.566;2023-04-28T14:10:13;2.20;;;0.90;;
63201;SDS011;49296;48.188;11.566;2023-04-28T14:12:40;1.17;;;0.70;;
63201;SDS011;49296;48.188;11.566;2023-04-28T14:15:09;2.00;;;0.70;;
63201;SDS011;49296;48.188;11.566;2023-04-28T14:17:36;1.10;;;0.80;;
63201;SDS011;49296;48.188;11.566;2023-04-28T14:20:03;2.92;;;1.00;;
63201;SDS011;49296;48.188;11.566;2023-04-28T14:22:30;2.28;;;0.60;;
63201;SDS011;49296;48.188;11.566;2023-04-28T14:24:57;1.17;;;0.60;;
63201;SDS011;49296;48.188;11.566;2023-04-28T14:27:24;0.95;;;0.63;;
63201;SDS011;49296;48.188;11.566;2023-04-28T14:29:52;1.42;;;0.80;;
63201;SDS011;49296;48.188;11.566;2023-04-28T14:32:20;1.58;;;0.60;;
63201;SDS011;49296;48.188;11.566;2023-04-28T14:34:47;1.27;;;0.60;;
63201;SDS011;49296;48.188;11.566;2023-04-28T14:37:15;1.85;;;0.90;;
63201;SDS011;49296;48.188;11.566;2023-04-28T14:39:42;1.60;;;0.80;;
63201;SDS011;49296;48.188;11.566;2023-04-28T14:42:09;1.23;;;0.50;;
63201;SDS011;49296;48.188;11.566;2023-04-28T14:44:36;3.28;;;0.98;;
63201;SDS011;49296;48.188;11.566;2023-04-28T14:47:03;3.35;;;0.80;;
63201;SDS011;49296;48.188;11.566;2023-04-28T14:49:31;1.88;;;0.80;;